createdAt,value
2022-10-26T00:00:06.521Z,206.12
2022-10-26T00:01:06.553Z,199.06
2022-10-26T00:02:06.585Z,199.06
2022-10-26T00:03:06.539Z,199.06
2022-10-26T00:04:06.518Z,199.06
2022-10-26T00:05:06.511Z,199.06
2022-10-26T00:06:06.524Z,199.06
2022-10-26T00:07:06.522Z,199.06
2022-10-26T00:08:06.531Z,199.06
2022-10-26T00:09:06.522Z,199.06
2022-10-26T00:10:06.533Z,199.06
2022-10-26T00:11:06.525Z,199.06
2022-10-26T00:12:06.537Z,199.06
2022-10-26T00:13:06.533Z,199.06
2022-10-26T00:14:06.537Z,199.06
2022-10-26T00:15:06.551Z,199.06
2022-10-26T00:16:06.549Z,199.06
2022-10-26T00:17:06.550Z,199.06
2022-10-26T00:18:06.539Z,199.06
2022-10-26T00:19:07.580Z,199.06
2022-10-26T00:20:06.545Z,199.06
2022-10-26T00:21:06.539Z,199.06
2022-10-26T00:22:06.540Z,199.06
2022-10-26T00:23:06.538Z,177.88
2022-10-26T00:24:06.577Z,194.82
2022-10-26T00:25:06.544Z,194.82
2022-10-26T00:26:06.551Z,194.82
2022-10-26T00:27:06.544Z,194.82
2022-10-26T00:28:06.557Z,194.82
2022-10-26T00:29:06.542Z,194.82
2022-10-26T00:30:06.546Z,194.82
2022-10-26T00:31:06.534Z,190.59
2022-10-26T00:32:06.560Z,199.06
2022-10-26T00:33:06.551Z,189.18
2022-10-26T00:34:06.538Z,203.29
2022-10-26T00:35:11.804Z,218.82
2022-10-26T00:36:06.547Z,153.88
2022-10-26T00:37:06.552Z,186.35
2022-10-26T00:38:06.549Z,190.59
2022-10-26T00:39:06.552Z,176.47
2022-10-26T00:40:06.541Z,201.88
2022-10-26T00:41:06.551Z,210.35
2022-10-26T00:42:06.543Z,193.41
2022-10-26T00:43:06.549Z,183.53
2022-10-26T00:44:06.553Z,165.18
2022-10-26T00:45:06.555Z,165.18
2022-10-26T00:46:06.545Z,165.18
2022-10-26T00:47:06.551Z,165.18
2022-10-26T00:48:06.560Z,165.18
2022-10-26T00:49:06.570Z,165.18
2022-10-26T00:50:06.561Z,165.18
2022-10-26T00:51:06.592Z,165.18
2022-10-26T00:52:06.563Z,165.18
2022-10-26T00:53:06.564Z,165.18
2022-10-26T00:54:06.560Z,165.18
2022-10-26T00:55:06.566Z,165.18
2022-10-26T00:56:06.557Z,165.18
2022-10-26T00:57:06.568Z,165.18
2022-10-26T00:58:06.571Z,165.18
2022-10-26T00:59:06.560Z,165.18
2022-10-26T01:00:06.569Z,165.18
2022-10-26T01:01:06.617Z,165.18
2022-10-26T01:02:06.577Z,165.18
2022-10-26T01:03:06.567Z,165.18
2022-10-26T01:04:06.578Z,165.18
2022-10-26T01:05:06.572Z,165.18
2022-10-26T01:06:06.564Z,165.18
2022-10-26T01:07:06.594Z,165.18
2022-10-26T01:08:06.576Z,165.18
2022-10-26T01:09:06.583Z,165.18
2022-10-26T01:10:06.581Z,165.18
2022-10-26T01:11:06.576Z,165.18
2022-10-26T01:12:06.581Z,165.18
2022-10-26T01:13:06.582Z,165.18
2022-10-26T01:14:06.586Z,112.94
2022-10-26T01:15:06.575Z,112.94
2022-10-26T01:16:06.596Z,112.94
2022-10-26T01:17:06.591Z,112.94
2022-10-26T01:18:06.581Z,112.94
2022-10-26T01:19:06.580Z,112.94
2022-10-26T01:20:06.574Z,112.94
2022-10-26T01:21:06.575Z,112.94
2022-10-26T01:22:06.579Z,112.94
2022-10-26T01:23:06.603Z,112.94
2022-10-26T01:24:06.576Z,112.94
2022-10-26T01:25:06.593Z,112.94
2022-10-26T01:26:06.586Z,112.94
2022-10-26T01:27:06.583Z,112.94
2022-10-26T01:28:06.590Z,112.94
2022-10-26T01:29:06.586Z,112.94
2022-10-26T01:30:06.588Z,112.94
2022-10-26T01:31:06.586Z,112.94
2022-10-26T01:32:06.583Z,112.94
2022-10-26T01:33:06.595Z,112.94
2022-10-26T01:34:06.585Z,112.94
2022-10-26T01:35:06.593Z,112.94
2022-10-26T01:36:06.590Z,112.94
2022-10-26T01:37:06.581Z,112.94
2022-10-26T01:38:06.585Z,112.94
2022-10-26T01:39:06.601Z,112.94
2022-10-26T01:40:06.590Z,112.94
2022-10-26T01:41:06.584Z,112.94
2022-10-26T01:42:06.595Z,169.41
2022-10-26T01:43:06.582Z,203.29
2022-10-26T01:44:06.593Z,180.71
2022-10-26T01:45:06.591Z,163.76
2022-10-26T01:46:06.627Z,149.65
2022-10-26T01:47:06.590Z,149.65
2022-10-26T01:48:06.588Z,149.65
2022-10-26T01:49:06.595Z,149.65
2022-10-26T01:50:06.589Z,149.65
2022-10-26T01:51:06.590Z,149.65
2022-10-26T01:52:06.601Z,149.65
2022-10-26T01:53:06.588Z,149.65
2022-10-26T01:54:06.599Z,149.65
2022-10-26T01:55:06.624Z,149.65
2022-10-26T01:56:06.600Z,149.65
2022-10-26T01:57:06.593Z,149.65
2022-10-26T01:58:06.597Z,149.65
2022-10-26T01:59:06.589Z,149.65
2022-10-26T02:00:06.598Z,149.65
2022-10-26T02:01:06.629Z,149.65
2022-10-26T02:02:06.613Z,149.65
2022-10-26T02:03:06.597Z,149.65
2022-10-26T02:04:06.663Z,149.65
2022-10-26T02:05:06.604Z,149.65
2022-10-26T02:06:06.602Z,149.65
2022-10-26T02:07:06.600Z,149.65
2022-10-26T02:08:06.609Z,149.65
2022-10-26T02:09:06.601Z,149.65
2022-10-26T02:10:06.608Z,149.65
2022-10-26T02:11:06.626Z,149.65
2022-10-26T02:12:06.611Z,149.65
2022-10-26T02:13:06.589Z,149.65
2022-10-26T02:14:06.648Z,149.65
2022-10-26T02:15:06.612Z,149.65
2022-10-26T02:16:06.605Z,149.65
2022-10-26T02:17:06.599Z,149.65
2022-10-26T02:18:06.613Z,149.65
2022-10-26T02:19:06.590Z,149.65
2022-10-26T02:20:06.619Z,149.65
2022-10-26T02:21:06.596Z,149.65
2022-10-26T02:22:06.606Z,149.65
2022-10-26T02:23:06.601Z,149.65
2022-10-26T02:25:06.609Z,149.65
2022-10-26T02:26:06.602Z,149.65
2022-10-26T02:27:06.614Z,149.65
2022-10-26T02:28:06.606Z,149.65
2022-10-26T02:29:06.603Z,149.65
2022-10-26T02:30:06.594Z,149.65
2022-10-26T02:31:06.594Z,149.65
2022-10-26T02:32:06.602Z,149.65
2022-10-26T02:33:06.612Z,110.12
2022-10-26T02:34:06.605Z,158.12
2022-10-26T02:35:06.598Z,217.41
2022-10-26T02:36:06.609Z,221.65
2022-10-26T02:37:06.603Z,225.88
2022-10-26T02:38:06.612Z,201.88
2022-10-26T02:39:06.600Z,101.65
2022-10-26T02:40:06.602Z,98.82
2022-10-26T02:41:06.607Z,57.88
2022-10-26T02:42:06.602Z,57.88
2022-10-26T02:43:06.640Z,57.88
2022-10-26T02:44:06.601Z,57.88
2022-10-26T02:45:06.611Z,57.88
2022-10-26T02:46:06.606Z,101.65
2022-10-26T02:47:06.600Z,108.71
2022-10-26T02:48:06.599Z,120
2022-10-26T02:49:06.610Z,80.47
2022-10-26T02:50:06.610Z,80.47
2022-10-26T02:51:06.616Z,230.12
2022-10-26T02:52:06.603Z,221.65
2022-10-26T02:53:06.616Z,221.65
2022-10-26T02:54:06.615Z,151.06
2022-10-26T02:55:06.615Z,155.29
2022-10-26T02:56:06.619Z,160.94
2022-10-26T02:57:06.611Z,160.94
2022-10-26T02:58:06.633Z,160.94
2022-10-26T02:59:06.637Z,160.94
2022-10-26T03:00:06.686Z,160.94
2022-10-26T03:01:06.679Z,160.94
2022-10-26T03:02:06.620Z,160.94
2022-10-26T03:03:06.615Z,160.94
2022-10-26T03:04:06.697Z,160.94
2022-10-26T03:05:06.616Z,160.94
2022-10-26T03:06:06.618Z,160.94
2022-10-26T03:07:06.642Z,160.94
2022-10-26T03:08:06.632Z,160.94
2022-10-26T03:09:06.654Z,160.94
2022-10-26T03:10:06.625Z,160.94
2022-10-26T03:11:06.646Z,160.94
2022-10-26T03:12:06.628Z,160.94
2022-10-26T03:13:06.628Z,160.94
2022-10-26T03:14:06.620Z,160.94
2022-10-26T03:15:06.647Z,160.94
2022-10-26T03:16:06.635Z,160.94
2022-10-26T03:17:06.621Z,160.94
2022-10-26T03:18:06.628Z,160.94
2022-10-26T03:19:06.632Z,160.94
2022-10-26T03:20:06.632Z,160.94
2022-10-26T03:21:06.638Z,160.94
2022-10-26T03:22:06.624Z,160.94
2022-10-26T03:23:06.640Z,160.94
2022-10-26T03:24:06.624Z,160.94
2022-10-26T03:25:06.632Z,160.94
2022-10-26T03:26:06.627Z,160.94
2022-10-26T03:27:06.621Z,160.94
2022-10-26T03:28:06.631Z,160.94
2022-10-26T03:29:06.634Z,160.94
2022-10-26T03:30:06.635Z,160.94
2022-10-26T03:31:06.651Z,160.94
2022-10-26T03:32:06.630Z,160.94
2022-10-26T03:33:06.681Z,160.94
2022-10-26T03:34:06.633Z,160.94
2022-10-26T03:35:06.642Z,160.94
2022-10-26T03:36:06.645Z,160.94
2022-10-26T03:37:06.643Z,160.94
2022-10-26T03:38:06.642Z,160.94
2022-10-26T03:39:06.640Z,160.94
2022-10-26T03:40:06.645Z,160.94
2022-10-26T03:41:06.644Z,160.94
2022-10-26T03:42:06.643Z,160.94
2022-10-26T03:43:06.654Z,160.94
2022-10-26T03:44:06.638Z,160.94
2022-10-26T03:45:06.643Z,160.94
2022-10-26T03:46:06.644Z,160.94
2022-10-26T03:47:06.677Z,160.94
2022-10-26T03:48:06.643Z,160.94
2022-10-26T03:49:06.635Z,160.94
2022-10-26T03:50:06.715Z,160.94
2022-10-26T03:51:06.650Z,160.94
2022-10-26T03:52:06.653Z,160.94
2022-10-26T03:53:06.653Z,160.94
2022-10-26T03:54:06.640Z,160.94
2022-10-26T03:55:06.653Z,160.94
2022-10-26T03:56:06.649Z,160.94
2022-10-26T03:57:06.643Z,160.94
2022-10-26T03:58:06.655Z,160.94
2022-10-26T03:59:06.641Z,160.94
2022-10-26T04:00:06.649Z,160.94
2022-10-26T04:01:06.691Z,160.94
2022-10-26T04:02:06.653Z,160.94
2022-10-26T04:03:06.676Z,160.94
2022-10-26T04:04:06.716Z,160.94
2022-10-26T04:05:06.665Z,160.94
2022-10-26T04:06:06.656Z,160.94
2022-10-26T04:07:06.666Z,160.94
2022-10-26T04:08:06.640Z,160.94
2022-10-26T04:09:06.659Z,160.94
2022-10-26T04:10:06.662Z,160.94
2022-10-26T04:11:06.654Z,160.94
2022-10-26T04:12:06.655Z,160.94
2022-10-26T04:13:06.660Z,160.94
2022-10-26T04:14:06.656Z,160.94
2022-10-26T04:15:06.684Z,160.94
2022-10-26T04:16:06.649Z,160.94
2022-10-26T04:17:06.658Z,160.94
2022-10-26T04:18:06.655Z,160.94
2022-10-26T04:19:06.679Z,160.94
2022-10-26T04:20:06.653Z,160.94
2022-10-26T04:21:06.660Z,160.94
2022-10-26T04:22:06.656Z,160.94
2022-10-26T04:23:06.658Z,160.94
2022-10-26T04:24:06.654Z,160.94
2022-10-26T04:25:06.658Z,160.94
2022-10-26T04:26:06.657Z,160.94
2022-10-26T04:27:06.657Z,160.94
2022-10-26T04:28:06.661Z,160.94
2022-10-26T04:29:06.660Z,160.94
2022-10-26T04:30:06.655Z,160.94
2022-10-26T04:31:06.663Z,160.94
2022-10-26T04:32:06.667Z,160.94
2022-10-26T04:33:06.661Z,160.94
2022-10-26T04:34:06.663Z,160.94
2022-10-26T04:35:06.683Z,160.94
2022-10-26T04:36:06.669Z,160.94
2022-10-26T04:37:06.658Z,160.94
2022-10-26T04:38:06.665Z,160.94
2022-10-26T04:39:06.661Z,160.94
2022-10-26T04:41:06.663Z,160.94
2022-10-26T04:42:06.664Z,160.94
2022-10-26T04:43:06.686Z,160.94
2022-10-26T04:44:06.671Z,160.94
2022-10-26T04:45:06.674Z,160.94
2022-10-26T04:46:06.665Z,160.94
2022-10-26T04:47:06.659Z,160.94
2022-10-26T04:48:06.656Z,160.94
2022-10-26T04:49:06.657Z,160.94
2022-10-26T04:50:06.662Z,160.94
2022-10-26T04:51:06.690Z,160.94
2022-10-26T04:52:06.667Z,160.94
2022-10-26T04:53:06.659Z,160.94
2022-10-26T04:54:06.658Z,160.94
2022-10-26T04:55:06.668Z,160.94
2022-10-26T04:56:06.663Z,160.94
2022-10-26T04:57:06.669Z,160.94
2022-10-26T04:58:06.674Z,160.94
2022-10-26T04:59:06.658Z,160.94
2022-10-26T05:00:06.666Z,160.94
2022-10-26T05:01:06.793Z,160.94
2022-10-26T05:02:06.756Z,160.94
2022-10-26T05:03:06.672Z,160.94
2022-10-26T05:04:06.671Z,160.94
2022-10-26T05:05:07.763Z,160.94
2022-10-26T05:06:06.670Z,160.94
2022-10-26T05:07:06.689Z,160.94
2022-10-26T05:08:06.662Z,160.94
2022-10-26T05:09:06.668Z,160.94
2022-10-26T05:10:06.668Z,160.94
2022-10-26T05:11:06.657Z,160.94
2022-10-26T05:12:06.665Z,160.94
2022-10-26T05:13:06.669Z,160.94
2022-10-26T05:14:06.675Z,160.94
2022-10-26T05:15:07.892Z,160.94
2022-10-26T05:16:06.668Z,160.94
2022-10-26T05:17:06.665Z,160.94
2022-10-26T05:18:06.671Z,160.94
2022-10-26T05:19:06.667Z,160.94
2022-10-26T05:20:06.672Z,160.94
2022-10-26T05:21:06.673Z,160.94
2022-10-26T05:22:06.674Z,160.94
2022-10-26T05:23:06.702Z,160.94
2022-10-26T05:24:08.742Z,160.94
2022-10-26T05:25:06.672Z,160.94
2022-10-26T05:26:06.671Z,160.94
2022-10-26T05:27:06.671Z,160.94
2022-10-26T05:28:06.671Z,160.94
2022-10-26T05:29:06.675Z,160.94
2022-10-26T05:31:06.685Z,160.94
2022-10-26T05:32:06.668Z,160.94
2022-10-26T05:33:06.676Z,160.94
2022-10-26T05:34:06.679Z,160.94
2022-10-26T05:35:06.676Z,160.94
2022-10-26T05:36:06.674Z,160.94
2022-10-26T05:37:06.691Z,160.94
2022-10-26T05:38:06.675Z,160.94
2022-10-26T05:39:06.692Z,160.94
2022-10-26T05:40:06.687Z,160.94
2022-10-26T05:41:06.677Z,160.94
2022-10-26T05:42:06.680Z,160.94
2022-10-26T05:43:06.677Z,160.94
2022-10-26T05:44:06.677Z,160.94
2022-10-26T05:45:06.680Z,160.94
2022-10-26T05:46:06.679Z,160.94
2022-10-26T05:47:06.674Z,160.94
2022-10-26T05:48:06.684Z,160.94
2022-10-26T05:49:06.683Z,160.94
2022-10-26T05:50:06.673Z,160.94
2022-10-26T05:51:06.686Z,160.94
2022-10-26T05:52:06.680Z,160.94
2022-10-26T05:53:06.677Z,160.94
2022-10-26T05:54:08.333Z,160.94
2022-10-26T05:56:07.361Z,160.94
2022-10-26T05:57:06.693Z,160.94
2022-10-26T05:58:06.671Z,160.94
2022-10-26T05:59:06.667Z,160.94
2022-10-26T06:00:06.676Z,160.94
2022-10-26T06:01:06.704Z,160.94
2022-10-26T06:02:06.778Z,160.94
2022-10-26T06:03:06.686Z,160.94
2022-10-26T06:04:06.683Z,160.94
2022-10-26T06:05:06.692Z,160.94
2022-10-26T06:06:07.380Z,160.94
2022-10-26T06:07:06.683Z,160.94
2022-10-26T06:08:06.678Z,160.94
2022-10-26T06:09:06.668Z,160.94
2022-10-26T06:10:06.687Z,160.94
2022-10-26T06:11:06.706Z,160.94
2022-10-26T06:12:06.687Z,160.94
2022-10-26T06:13:06.690Z,160.94
2022-10-26T06:14:06.688Z,160.94
2022-10-26T06:15:06.682Z,160.94
2022-10-26T06:16:06.687Z,160.94
2022-10-26T06:17:06.685Z,160.94
2022-10-26T06:18:06.677Z,160.94
2022-10-26T06:19:06.676Z,160.94
2022-10-26T06:20:06.731Z,160.94
2022-10-26T06:21:06.685Z,160.94
2022-10-26T06:22:06.697Z,160.94
2022-10-26T06:23:06.694Z,160.94
2022-10-26T06:24:06.693Z,160.94
2022-10-26T06:25:06.681Z,160.94
2022-10-26T06:26:06.682Z,160.94
2022-10-26T06:27:06.709Z,160.94
2022-10-26T06:28:06.674Z,160.94
2022-10-26T06:29:06.689Z,160.94
2022-10-26T06:30:06.687Z,160.94
2022-10-26T06:31:06.683Z,160.94
2022-10-26T06:32:06.683Z,160.94
2022-10-26T06:33:18.138Z,160.94
2022-10-26T06:34:06.702Z,160.94
2022-10-26T06:35:07.268Z,160.94
2022-10-26T06:36:06.687Z,160.94
2022-10-26T06:37:06.683Z,160.94
2022-10-26T06:38:06.691Z,160.94
2022-10-26T06:39:06.696Z,160.94
2022-10-26T06:40:06.683Z,160.94
2022-10-26T06:41:06.690Z,160.94
2022-10-26T06:42:06.706Z,160.94
2022-10-26T06:43:06.720Z,160.94
2022-10-26T06:44:06.691Z,160.94
2022-10-26T06:45:06.746Z,160.94
2022-10-26T06:46:06.705Z,160.94
2022-10-26T06:47:06.707Z,160.94
2022-10-26T06:48:06.703Z,160.94
2022-10-26T06:49:06.712Z,160.94
2022-10-26T06:50:06.705Z,160.94
2022-10-26T06:51:06.722Z,160.94
2022-10-26T06:52:06.711Z,160.94
2022-10-26T06:53:06.720Z,160.94
2022-10-26T06:54:06.712Z,160.94
2022-10-26T06:55:06.713Z,160.94
2022-10-26T06:56:06.704Z,160.94
2022-10-26T06:57:06.712Z,160.94
2022-10-26T06:58:06.729Z,160.94
2022-10-26T06:59:07.044Z,160.94
2022-10-26T07:00:06.721Z,160.94
2022-10-26T07:01:06.843Z,160.94
2022-10-26T07:02:06.907Z,160.94
2022-10-26T07:03:06.765Z,160.94
2022-10-26T07:04:06.732Z,160.94
2022-10-26T07:05:06.728Z,160.94
2022-10-26T07:06:06.755Z,160.94
2022-10-26T07:07:06.727Z,160.94
2022-10-26T07:08:06.729Z,160.94
2022-10-26T07:09:06.735Z,160.94
2022-10-26T07:10:06.723Z,160.94
2022-10-26T07:11:06.729Z,160.94
2022-10-26T07:12:06.732Z,160.94
2022-10-26T07:13:06.738Z,160.94
2022-10-26T07:14:06.732Z,160.94
2022-10-26T07:15:06.770Z,160.94
2022-10-26T07:16:06.753Z,160.94
2022-10-26T07:17:06.740Z,160.94
2022-10-26T07:18:06.740Z,160.94
2022-10-26T07:19:06.738Z,160.94
2022-10-26T07:20:06.735Z,160.94
2022-10-26T07:21:06.745Z,160.94
2022-10-26T07:22:06.740Z,160.94
2022-10-26T07:23:06.742Z,160.94
2022-10-26T07:24:06.755Z,160.94
2022-10-26T07:25:06.756Z,160.94
2022-10-26T07:26:06.756Z,160.94
2022-10-26T07:27:06.755Z,160.94
2022-10-26T07:28:06.752Z,160.94
2022-10-26T07:29:06.752Z,160.94
2022-10-26T07:30:06.763Z,160.94
2022-10-26T07:31:06.781Z,160.94
2022-10-26T07:32:06.765Z,160.94
2022-10-26T07:33:06.767Z,160.94
2022-10-26T07:34:06.755Z,160.94
2022-10-26T07:35:06.772Z,160.94
2022-10-26T07:36:06.767Z,160.94
2022-10-26T07:37:06.776Z,160.94
2022-10-26T07:38:06.769Z,160.94
2022-10-26T07:39:06.772Z,160.94
2022-10-26T07:40:07.087Z,160.94
2022-10-26T07:41:06.771Z,160.94
2022-10-26T07:42:06.770Z,160.94
2022-10-26T07:43:06.774Z,160.94
2022-10-26T07:44:06.781Z,160.94
2022-10-26T07:45:06.772Z,160.94
2022-10-26T07:46:06.778Z,160.94
2022-10-26T07:47:06.798Z,160.94
2022-10-26T07:48:06.783Z,160.94
2022-10-26T07:49:06.778Z,160.94
2022-10-26T07:50:06.786Z,160.94
2022-10-26T07:51:06.782Z,160.94
2022-10-26T07:52:06.780Z,160.94
2022-10-26T07:53:06.801Z,160.94
2022-10-26T07:54:06.788Z,160.94
2022-10-26T07:55:06.788Z,160.94
2022-10-26T07:56:06.815Z,160.94
2022-10-26T07:57:06.835Z,234.35
2022-10-26T07:58:06.790Z,179.29
2022-10-26T07:59:06.793Z,177.88
2022-10-26T08:00:06.789Z,175.06
2022-10-26T08:01:06.917Z,148.24
2022-10-26T08:02:06.851Z,148.24
2022-10-26T08:03:06.817Z,148.24
2022-10-26T08:04:06.799Z,148.24
2022-10-26T08:05:06.792Z,148.24
2022-10-26T08:06:06.820Z,148.24
2022-10-26T08:07:06.804Z,148.24
2022-10-26T08:08:06.791Z,148.24
2022-10-26T08:09:06.789Z,148.24
2022-10-26T08:10:06.792Z,148.24
2022-10-26T08:11:06.794Z,148.24
2022-10-26T08:12:06.792Z,148.24
2022-10-26T08:13:06.799Z,148.24
2022-10-26T08:14:06.803Z,148.24
2022-10-26T08:15:06.813Z,151.06
2022-10-26T08:16:06.802Z,153.88
2022-10-26T08:17:06.803Z,158.12
2022-10-26T08:18:06.809Z,153.88
2022-10-26T08:19:06.821Z,153.88
2022-10-26T08:20:06.797Z,158.12
2022-10-26T08:21:10.555Z,148.24
2022-10-26T08:22:06.882Z,158.12
2022-10-26T08:23:06.819Z,153.88
2022-10-26T08:24:06.805Z,138.35
2022-10-26T08:25:06.810Z,138.35
2022-10-26T08:26:06.813Z,138.35
2022-10-26T08:27:06.817Z,138.35
2022-10-26T08:28:06.804Z,155.29
2022-10-26T08:29:06.812Z,120
2022-10-26T08:30:06.821Z,120
2022-10-26T08:31:06.825Z,155.29
2022-10-26T08:32:06.816Z,138.35
2022-10-26T08:33:06.815Z,145.41
2022-10-26T08:34:06.812Z,142.59
2022-10-26T08:35:06.844Z,142.59
2022-10-26T08:36:06.819Z,142.59
2022-10-26T08:37:06.858Z,142.59
2022-10-26T08:38:06.843Z,142.59
2022-10-26T08:39:06.820Z,142.59
2022-10-26T08:40:06.836Z,142.59
2022-10-26T08:41:06.821Z,142.59
2022-10-26T08:42:06.839Z,142.59
2022-10-26T08:43:06.815Z,142.59
2022-10-26T08:44:06.818Z,142.59
2022-10-26T08:45:06.826Z,142.59
2022-10-26T08:46:06.818Z,142.59
2022-10-26T08:47:06.878Z,142.59
2022-10-26T08:48:06.829Z,142.59
2022-10-26T08:49:06.824Z,142.59
2022-10-26T08:50:06.827Z,142.59
2022-10-26T08:51:06.856Z,142.59
2022-10-26T08:52:06.818Z,142.59
2022-10-26T08:53:06.827Z,142.59
2022-10-26T08:54:06.823Z,142.59
2022-10-26T08:55:06.829Z,142.59
2022-10-26T08:56:06.824Z,142.59
2022-10-26T08:57:06.832Z,142.59
2022-10-26T08:58:06.825Z,142.59
2022-10-26T08:59:06.833Z,142.59
2022-10-26T09:00:06.828Z,142.59
2022-10-26T09:01:06.964Z,142.59
2022-10-26T09:02:06.837Z,158.12
2022-10-26T09:03:06.835Z,149.65
2022-10-26T09:04:06.832Z,149.65
2022-10-26T09:05:06.826Z,149.65
2022-10-26T09:06:06.837Z,149.65
2022-10-26T09:07:06.863Z,149.65
2022-10-26T09:08:06.842Z,149.65
2022-10-26T09:09:06.832Z,149.65
2022-10-26T09:10:06.827Z,149.65
2022-10-26T09:11:06.843Z,149.65
2022-10-26T09:12:06.827Z,149.65
2022-10-26T09:13:06.841Z,149.65
2022-10-26T09:14:06.834Z,149.65
2022-10-26T09:15:06.842Z,149.65
2022-10-26T09:16:06.833Z,149.65
2022-10-26T09:17:06.831Z,149.65
2022-10-26T09:18:06.835Z,149.65
2022-10-26T09:19:06.832Z,149.65
2022-10-26T09:20:06.833Z,149.65
2022-10-26T09:21:06.844Z,149.65
2022-10-26T09:22:06.842Z,149.65
2022-10-26T09:23:06.866Z,149.65
2022-10-26T09:24:06.836Z,149.65
2022-10-26T09:25:07.729Z,149.65
2022-10-26T09:26:06.840Z,149.65
2022-10-26T09:27:06.862Z,149.65
2022-10-26T09:28:06.847Z,149.65
2022-10-26T09:29:06.853Z,149.65
2022-10-26T09:30:06.853Z,149.65
2022-10-26T09:31:06.852Z,149.65
2022-10-26T09:32:06.862Z,149.65
2022-10-26T09:33:06.852Z,149.65
2022-10-26T09:34:06.857Z,149.65
2022-10-26T09:35:06.859Z,149.65
2022-10-26T09:36:06.865Z,149.65
2022-10-26T09:37:06.862Z,149.65
2022-10-26T09:38:06.867Z,149.65
2022-10-26T09:39:06.884Z,149.65
2022-10-26T09:40:06.867Z,149.65
2022-10-26T09:41:06.864Z,149.65
2022-10-26T09:42:06.859Z,149.65
2022-10-26T09:43:06.867Z,149.65
2022-10-26T09:44:06.866Z,149.65
2022-10-26T09:45:06.864Z,149.65
2022-10-26T09:46:06.861Z,149.65
2022-10-26T09:47:06.865Z,149.65
2022-10-26T09:48:07.384Z,149.65
2022-10-26T09:49:06.887Z,149.65
2022-10-26T09:50:06.874Z,149.65
2022-10-26T09:51:06.877Z,145.41
2022-10-26T09:52:06.949Z,153.88
2022-10-26T09:53:06.876Z,124.24
2022-10-26T09:54:06.875Z,124.24
2022-10-26T09:55:06.902Z,139.76
2022-10-26T09:56:06.882Z,148.24
2022-10-26T09:57:06.884Z,148.24
2022-10-26T09:58:06.888Z,103.06
2022-10-26T09:59:06.890Z,91.76
2022-10-26T10:00:06.870Z,91.76
2022-10-26T10:01:06.966Z,91.76
2022-10-26T10:02:06.881Z,91.76
2022-10-26T10:03:06.915Z,124.24
2022-10-26T10:04:06.891Z,144
2022-10-26T10:05:06.886Z,144
2022-10-26T10:06:06.903Z,153.88
2022-10-26T10:07:06.896Z,125.65
2022-10-26T10:08:06.897Z,135.53
2022-10-26T10:09:06.905Z,146.82
2022-10-26T10:10:06.895Z,153.88
2022-10-26T10:11:06.950Z,151.06
2022-10-26T10:12:06.905Z,141.18
2022-10-26T10:13:06.903Z,141.18
2022-10-26T10:14:06.911Z,141.18
2022-10-26T10:15:06.913Z,141.18
2022-10-26T10:16:06.914Z,141.18
2022-10-26T10:17:06.980Z,141.18
2022-10-26T10:18:06.923Z,141.18
2022-10-26T10:19:06.917Z,141.18
2022-10-26T10:20:06.924Z,141.18
2022-10-26T10:21:06.923Z,141.18
2022-10-26T10:22:06.931Z,141.18
2022-10-26T10:23:06.921Z,156.71
2022-10-26T10:24:06.917Z,105.88
2022-10-26T10:25:06.925Z,153.88
2022-10-26T10:26:06.930Z,115.76
2022-10-26T10:27:06.955Z,121.41
2022-10-26T10:28:06.932Z,88.94
2022-10-26T10:29:06.941Z,81.88
2022-10-26T10:30:06.928Z,66.35
2022-10-26T10:31:07.011Z,66.35
2022-10-26T10:32:06.934Z,66.35
2022-10-26T10:33:06.941Z,66.35
2022-10-26T10:34:06.937Z,114.35
2022-10-26T10:35:06.939Z,100.24
2022-10-26T10:36:06.935Z,96
2022-10-26T10:37:06.940Z,81.88
2022-10-26T10:38:06.939Z,90.35
2022-10-26T10:39:06.938Z,79.06
2022-10-26T10:40:06.944Z,134.12
2022-10-26T10:41:06.945Z,53.65
2022-10-26T10:42:06.946Z,67.76
2022-10-26T10:43:06.973Z,70.59
2022-10-26T10:44:06.951Z,48
2022-10-26T10:45:06.958Z,45.18
2022-10-26T10:46:06.951Z,45.18
2022-10-26T10:47:06.948Z,69.18
2022-10-26T10:48:06.978Z,64.94
2022-10-26T10:49:06.959Z,57.88
2022-10-26T10:50:06.953Z,57.88
2022-10-26T10:51:06.962Z,57.88
2022-10-26T10:52:06.951Z,57.88
2022-10-26T10:53:06.956Z,57.88
2022-10-26T10:54:06.954Z,57.88
2022-10-26T10:55:06.965Z,57.88
2022-10-26T10:56:07.858Z,57.88
2022-10-26T10:57:06.976Z,57.88
2022-10-26T10:58:06.965Z,128.47
2022-10-26T10:59:06.991Z,138.35
2022-10-26T11:00:06.966Z,122.82
2022-10-26T11:01:07.044Z,194.82
2022-10-26T11:02:07.097Z,193.41
2022-10-26T11:03:06.973Z,182.12
2022-10-26T11:04:07.030Z,190.59
2022-10-26T11:05:06.976Z,183.53
2022-10-26T11:06:06.977Z,169.41
2022-10-26T11:07:06.979Z,168
2022-10-26T11:08:06.984Z,152.47
2022-10-26T11:09:06.972Z,146.82
2022-10-26T11:10:06.973Z,151.06
2022-10-26T11:11:06.985Z,183.53
2022-10-26T11:12:06.980Z,182.12
2022-10-26T11:13:06.982Z,170.82
2022-10-26T11:14:06.974Z,166.59
2022-10-26T11:15:07.006Z,175.06
2022-10-26T11:16:06.990Z,183.53
2022-10-26T11:17:06.995Z,182.12
2022-10-26T11:18:06.979Z,213.18
2022-10-26T11:19:06.985Z,206.12
2022-10-26T11:20:09.975Z,165.18
2022-10-26T11:21:06.986Z,182.12
2022-10-26T11:22:06.996Z,148.24
2022-10-26T11:23:07.024Z,183.53
2022-10-26T11:24:06.996Z,183.53
2022-10-26T11:25:06.993Z,170.82
2022-10-26T11:26:06.989Z,187.76
2022-10-26T11:27:06.999Z,187.76
2022-10-26T11:28:07.005Z,127.06
2022-10-26T11:29:07.060Z,125.65
2022-10-26T11:30:07.003Z,129.88
2022-10-26T11:31:07.042Z,114.35
2022-10-26T11:32:06.999Z,114.35
2022-10-26T11:33:07.022Z,128.47
2022-10-26T11:34:07.006Z,134.12
2022-10-26T11:35:07.007Z,96
2022-10-26T11:36:07.002Z,96
2022-10-26T11:37:07.015Z,96
2022-10-26T11:38:07.005Z,141.18
2022-10-26T11:39:07.011Z,120
2022-10-26T11:40:07.009Z,131.29
2022-10-26T11:41:07.014Z,74.82
2022-10-26T11:42:07.006Z,74.82
2022-10-26T11:43:07.015Z,74.82
2022-10-26T11:44:07.014Z,115.76
2022-10-26T11:45:07.023Z,115.76
2022-10-26T11:46:07.026Z,115.76
2022-10-26T11:47:07.061Z,115.76
2022-10-26T11:48:07.023Z,115.76
2022-10-26T11:49:07.019Z,115.76
2022-10-26T11:50:07.021Z,115.76
2022-10-26T11:51:07.031Z,115.76
2022-10-26T11:52:07.035Z,115.76
2022-10-26T11:53:07.026Z,115.76
2022-10-26T11:54:07.044Z,115.76
2022-10-26T11:55:07.037Z,115.76
2022-10-26T11:56:07.032Z,115.76
2022-10-26T11:57:07.025Z,115.76
2022-10-26T11:58:07.040Z,115.76
2022-10-26T11:59:07.037Z,115.76
2022-10-26T12:00:07.022Z,115.76
2022-10-26T12:01:07.096Z,115.76
2022-10-26T12:02:07.032Z,115.76
2022-10-26T12:03:07.057Z,115.76
2022-10-26T12:04:07.040Z,115.76
2022-10-26T12:05:07.043Z,115.76
2022-10-26T12:06:07.035Z,63.53
2022-10-26T12:07:07.038Z,63.53
2022-10-26T12:08:07.037Z,63.53
2022-10-26T12:09:07.044Z,63.53
2022-10-26T12:10:07.038Z,63.53
2022-10-26T12:12:07.044Z,63.53
2022-10-26T12:13:07.061Z,63.53
2022-10-26T12:14:07.051Z,63.53
2022-10-26T12:15:07.045Z,63.53
2022-10-26T12:16:07.051Z,63.53
2022-10-26T12:17:07.050Z,63.53
2022-10-26T12:18:07.061Z,63.53
2022-10-26T12:19:07.087Z,63.53
2022-10-26T12:20:07.061Z,63.53
2022-10-26T12:21:07.068Z,63.53
2022-10-26T12:22:07.061Z,63.53
2022-10-26T12:23:07.077Z,63.53
2022-10-26T12:24:07.065Z,63.53
2022-10-26T12:25:10.110Z,63.53
2022-10-26T12:26:07.052Z,63.53
2022-10-26T12:27:07.064Z,63.53
2022-10-26T12:28:07.066Z,63.53
2022-10-26T12:29:07.070Z,63.53
2022-10-26T12:30:07.076Z,63.53
2022-10-26T12:31:07.073Z,63.53
2022-10-26T12:32:07.076Z,63.53
2022-10-26T12:33:07.070Z,63.53
2022-10-26T12:34:07.075Z,63.53
2022-10-26T12:35:07.095Z,63.53
2022-10-26T12:37:07.071Z,63.53